createdAt,value
2017-05-01T00:00:32.186Z,6.27
2017-05-01T00:01:32.216Z,6.25
2017-05-01T00:02:32.172Z,6.18
2017-05-01T00:03:32.408Z,6.17
2017-05-01T00:04:31.840Z,6.12
2017-05-01T00:05:32.138Z,6.11
2017-05-01T00:06:32.120Z,6.15
2017-05-01T00:07:32.110Z,6.08
2017-05-01T00:08:32.350Z,6.11
2017-05-01T00:09:32.093Z,6.09
2017-05-01T00:10:32.076Z,6.22
2017-05-01T00:11:32.066Z,6.12
2017-05-01T00:12:32.056Z,6.17
2017-05-01T00:13:32.349Z,6.19
2017-05-01T00:14:32.036Z,6.11
2017-05-01T00:15:31.720Z,6.14
2017-05-01T00:16:32.014Z,6.06
2017-05-01T00:17:32.001Z,6.03
2017-05-01T00:18:31.941Z,6.08
2017-05-01T00:19:31.979Z,6.06
2017-05-01T00:20:31.967Z,6
2017-05-01T00:21:31.651Z,6.06
2017-05-01T00:22:31.944Z,5.96
2017-05-01T00:23:32.235Z,6.03
2017-05-01T00:24:31.925Z,6.06
2017-05-01T00:25:31.911Z,6.06
2017-05-01T00:26:31.901Z,5.97
2017-05-01T00:27:31.889Z,6.01
2017-05-01T00:28:32.180Z,5.93
2017-05-01T00:29:31.872Z,5.94
2017-05-01T00:30:31.859Z,5.9
2017-05-01T00:31:31.847Z,5.83
2017-05-01T00:32:31.834Z,5.85
2017-05-01T00:33:32.126Z,5.85
2017-05-01T00:34:31.816Z,5.82
2017-05-01T00:35:31.804Z,5.86
2017-05-01T00:36:31.788Z,5.93
2017-05-01T00:37:31.781Z,5.89
2017-05-01T00:38:32.020Z,5.83
2017-05-01T00:39:31.755Z,5.91
2017-05-01T00:40:31.443Z,5.9
2017-05-01T00:41:32.080Z,5.86
2017-05-01T00:42:31.722Z,5.85
2017-05-01T00:43:32.020Z,5.89
2017-05-01T00:44:31.701Z,5.83
2017-05-01T00:45:31.689Z,5.85
2017-05-01T00:46:31.681Z,5.86
2017-05-01T00:47:31.668Z,5.89
2017-05-01T00:48:31.908Z,5.85
2017-05-01T00:49:31.647Z,5.82
2017-05-01T00:50:31.634Z,5.83
2017-05-01T00:51:31.624Z,5.9
2017-05-01T00:52:31.613Z,5.83
2017-05-01T00:53:31.903Z,5.82
2017-05-01T00:54:31.588Z,5.82
2017-05-01T00:55:31.577Z,5.81
2017-05-01T00:56:31.564Z,5.83
2017-05-01T00:57:31.556Z,5.82
2017-05-01T00:58:31.846Z,5.9
2017-05-01T00:59:31.532Z,5.82
2017-05-01T01:00:31.523Z,5.85
2017-05-01T01:01:31.508Z,5.75
2017-05-01T01:02:31.502Z,5.75
2017-05-01T01:03:31.837Z,5.82
2017-05-01T01:04:31.476Z,5.75
2017-05-01T01:05:31.160Z,5.76
2017-05-01T01:06:31.151Z,5.76
2017-05-01T01:07:31.440Z,5.72
2017-05-01T01:08:31.380Z,5.75
2017-05-01T01:09:31.418Z,5.65
2017-05-01T01:10:31.412Z,5.64
2017-05-01T01:11:31.397Z,5.64
2017-05-01T01:12:31.384Z,5.6
2017-05-01T01:13:31.623Z,5.54
2017-05-01T01:14:31.064Z,5.57
2017-05-01T01:15:31.045Z,5.6
2017-05-01T01:16:31.340Z,5.57
2017-05-01T01:17:31.329Z,5.53
2017-05-01T01:18:31.621Z,5.56
2017-05-01T01:19:31.309Z,5.72
2017-05-01T01:20:30.993Z,5.63
2017-05-01T01:21:31.282Z,5.71
2017-05-01T01:22:31.273Z,5.64
2017-05-01T01:23:31.610Z,5.72
2017-05-01T01:24:31.249Z,5.64
2017-05-01T01:25:31.237Z,5.68
2017-05-01T01:26:31.227Z,5.71
2017-05-01T01:27:31.218Z,5.65
2017-05-01T01:28:31.458Z,5.67
2017-05-01T01:29:31.194Z,5.75
2017-05-01T01:30:31.180Z,5.67
2017-05-01T01:31:31.168Z,5.65
2017-05-01T01:32:31.163Z,5.65
2017-05-01T01:33:31.398Z,5.65
2017-05-01T01:34:31.134Z,5.67
2017-05-01T01:35:31.123Z,5.64
2017-05-01T01:36:31.109Z,5.58
2017-05-01T01:37:31.099Z,5.67
2017-05-01T01:38:31.090Z,5.65
2017-05-01T01:39:31.080Z,5.64
2017-05-01T01:40:31.070Z,5.64
2017-05-01T01:41:31.053Z,5.64
2017-05-01T01:42:31.047Z,5.61
2017-05-01T01:43:30.731Z,5.6
2017-05-01T01:44:30.720Z,5.53
2017-05-01T01:45:31.008Z,5.6
2017-05-01T01:46:31.004Z,5.54
2017-05-01T01:47:30.986Z,5.68
2017-05-01T01:48:30.975Z,5.53
2017-05-01T01:49:31.009Z,5.58
2017-05-01T01:50:30.953Z,5.67
2017-05-01T01:51:30.937Z,5.61
2017-05-01T01:52:30.932Z,5.61
2017-05-01T01:53:30.923Z,5.63
2017-05-01T01:54:30.907Z,5.57
2017-05-01T01:55:30.899Z,5.64
2017-05-01T01:56:30.881Z,5.61
2017-05-01T01:57:30.872Z,5.57
2017-05-01T01:58:30.861Z,5.58
2017-05-01T01:59:30.847Z,5.64
2017-05-01T02:00:30.533Z,5.57
2017-05-01T02:01:30.825Z,5.63
2017-05-01T02:02:30.817Z,5.51
2017-05-01T02:03:30.499Z,5.46
2017-05-01T02:04:30.794Z,5.58
2017-05-01T02:05:30.783Z,5.48
2017-05-01T02:06:30.768Z,5.49
2017-05-01T02:07:30.758Z,5.46
2017-05-01T02:08:30.749Z,5.42
2017-05-01T02:09:30.738Z,5.49
2017-05-01T02:10:30.723Z,5.46
2017-05-01T02:11:30.737Z,5.42
2017-05-01T02:12:30.695Z,5.54
2017-05-01T02:13:30.687Z,5.46
2017-05-01T02:14:30.678Z,5.53
2017-05-01T02:15:30.662Z,5.46
2017-05-01T02:16:30.654Z,5.46
2017-05-01T02:17:30.643Z,5.4
2017-05-01T02:18:30.631Z,5.42
2017-05-01T02:19:30.621Z,5.48
2017-05-01T02:20:30.607Z,5.4
2017-05-01T02:21:30.594Z,5.43
2017-05-01T02:22:30.583Z,5.36
2017-05-01T02:23:30.573Z,5.31
2017-05-01T02:24:30.563Z,5.33
2017-05-01T02:25:30.546Z,5.31
2017-05-01T02:26:30.536Z,5.33
2017-05-01T02:27:30.222Z,5.3
2017-05-01T02:28:30.515Z,5.28
2017-05-01T02:29:30.510Z,5.27
2017-05-01T02:30:30.192Z,5.3
2017-05-01T02:31:30.479Z,5.31
2017-05-01T02:32:30.472Z,5.25
2017-05-01T02:33:30.461Z,5.24
2017-05-01T02:34:30.744Z,5.2
2017-05-01T02:35:30.431Z,5.24
2017-05-01T02:36:30.420Z,5.24
2017-05-01T02:37:30.410Z,5.28
2017-05-01T02:38:30.091Z,5.18
2017-05-01T02:39:30.681Z,5.15
2017-05-01T02:40:30.374Z,5.22
2017-05-01T02:41:30.362Z,5.17
2017-05-01T02:42:30.358Z,5.15
2017-05-01T02:43:30.343Z,5.2
2017-05-01T02:44:30.577Z,5.17
2017-05-01T02:45:30.315Z,5.15
2017-05-01T02:46:30.302Z,5.15
2017-05-01T02:47:30.291Z,5.1
2017-05-01T02:48:30.284Z,5.09
2017-05-01T02:49:30.568Z,5.04
2017-05-01T02:50:30.254Z,5.13
2017-05-01T02:51:30.244Z,5.09
2017-05-01T02:52:30.236Z,5.07
2017-05-01T02:53:30.278Z,5.02
2017-05-01T02:54:30.512Z,5.18
2017-05-01T02:55:30.197Z,5.15
2017-05-01T02:56:30.189Z,5.15
2017-05-01T02:57:30.175Z,5.04
2017-05-01T02:58:30.167Z,5.1
2017-05-01T02:59:30.402Z,5.06
2017-05-01T03:00:30.138Z,5.09
2017-05-01T03:01:30.127Z,5.06
2017-05-01T03:02:30.117Z,5.09
2017-05-01T03:03:30.105Z,5.02
2017-05-01T03:04:30.391Z,5.06
2017-05-01T03:05:30.078Z,5.06
2017-05-01T03:06:30.066Z,5.02
2017-05-01T03:07:30.055Z,5.02
2017-05-01T03:08:30.046Z,4.97
2017-05-01T03:09:30.283Z,4.94
2017-05-01T03:10:30.025Z,5.02
2017-05-01T03:11:30.008Z,5.02
2017-05-01T03:12:29.998Z,5.02
2017-05-01T03:13:29.985Z,4.96
2017-05-01T03:14:30.276Z,5.02
2017-05-01T03:15:29.960Z,5.02
2017-05-01T03:16:29.948Z,4.99
2017-05-01T03:17:29.938Z,4.97
2017-05-01T03:18:29.924Z,4.94
2017-05-01T03:19:30.264Z,4.99
2017-05-01T03:20:29.903Z,4.88
2017-05-01T03:21:29.891Z,4.97
2017-05-01T03:22:29.876Z,4.94
2017-05-01T03:23:29.864Z,4.96
2017-05-01T03:24:30.107Z,4.91
2017-05-01T03:25:29.840Z,4.96
2017-05-01T03:26:29.828Z,4.94
2017-05-01T03:27:29.821Z,4.91
2017-05-01T03:28:29.808Z,4.97
2017-05-01T03:29:30.053Z,4.88
2017-05-01T03:30:29.781Z,4.89
2017-05-01T03:31:29.771Z,4.97
2017-05-01T03:32:29.760Z,4.92
2017-05-01T03:33:29.746Z,4.96
2017-05-01T03:34:29.683Z,4.96
2017-05-01T03:35:29.723Z,4.92
2017-05-01T03:36:29.709Z,4.89
2017-05-01T03:37:29.700Z,4.94
2017-05-01T03:38:29.686Z,4.88
2017-05-01T03:39:30.013Z,4.96
2017-05-01T03:40:29.663Z,4.92
2017-05-01T03:41:29.653Z,4.96
2017-05-01T03:42:29.639Z,4.94
2017-05-01T03:43:29.634Z,4.92
2017-05-01T03:44:29.917Z,5.06
2017-05-01T03:45:29.601Z,4.99
2017-05-01T03:46:29.591Z,5
2017-05-01T03:47:29.581Z,5.03
2017-05-01T03:48:29.266Z,4.99
2017-05-01T03:49:29.807Z,5.04
2017-05-01T03:50:29.544Z,5.04
2017-05-01T03:51:29.533Z,5.02
2017-05-01T03:52:29.217Z,5.07
2017-05-01T03:53:29.510Z,5.06
2017-05-01T03:54:29.801Z,5.12
2017-05-01T03:55:29.485Z,5.1
2017-05-01T03:56:29.473Z,5.2
2017-05-01T03:57:29.463Z,5.07
2017-05-01T03:58:29.450Z,5.25
2017-05-01T03:59:29.746Z,5.24
2017-05-01T04:00:29.426Z,5.15
2017-05-01T04:01:29.417Z,5.27
2017-05-01T04:02:29.101Z,5.21
2017-05-01T04:03:29.393Z,5.25
2017-05-01T04:04:29.630Z,5.3
2017-05-01T04:05:29.376Z,5.42
2017-05-01T04:06:29.356Z,5.4
2017-05-01T04:07:29.352Z,5.49
2017-05-01T04:08:29.341Z,5.48
2017-05-01T04:09:29.623Z,5.61
2017-05-01T04:10:29.310Z,5.61
2017-05-01T04:11:29.299Z,5.54
2017-05-01T04:12:29.285Z,5.65
2017-05-01T04:13:29.278Z,5.65
2017-05-01T04:14:29.519Z,5.79
2017-05-01T04:15:29.252Z,5.85
2017-05-01T04:16:29.240Z,5.93
2017-05-01T04:17:29.229Z,6.09
2017-05-01T04:18:28.917Z,6.27
2017-05-01T04:19:29.461Z,6.38
2017-05-01T04:20:28.895Z,6.46
2017-05-01T04:21:29.188Z,6.64
2017-05-01T04:22:28.874Z,6.84
2017-05-01T04:23:29.166Z,6.98
2017-05-01T04:24:28.853Z,7.09
2017-05-01T04:25:28.839Z,7.17
2017-05-01T04:26:28.833Z,7.28
2017-05-01T04:27:29.128Z,7.27
2017-05-01T04:28:29.115Z,7.42
2017-05-01T04:29:29.147Z,7.5
2017-05-01T04:30:29.099Z,7.48
2017-05-01T04:31:29.092Z,7.52
2017-05-01T04:32:29.074Z,7.4
2017-05-01T04:33:29.069Z,7.43
2017-05-01T04:34:29.056Z,7.35
2017-05-01T04:35:29.046Z,7.3
2017-05-01T04:36:29.035Z,7.31
2017-05-01T04:37:29.024Z,7.34
2017-05-01T04:38:28.721Z,7.23
2017-05-01T04:39:29.008Z,7.16
2017-05-01T04:40:28.997Z,7.17
2017-05-01T04:41:28.986Z,7.13
2017-05-01T04:42:28.977Z,7.06
2017-05-01T04:43:28.966Z,7.07
2017-05-01T04:44:28.959Z,7.03
2017-05-01T04:45:28.945Z,7.07
2017-05-01T04:46:28.939Z,7.15
2017-05-01T04:47:28.625Z,7.1
2017-05-01T04:48:28.919Z,7.05
2017-05-01T04:49:28.907Z,6.99
2017-05-01T04:50:28.901Z,6.95
2017-05-01T04:51:28.887Z,7.03
2017-05-01T04:52:28.877Z,7.02
2017-05-01T04:53:28.871Z,6.94
2017-05-01T04:54:28.858Z,7.02
2017-05-01T04:55:28.848Z,6.92
2017-05-01T04:56:28.835Z,6.85
2017-05-01T04:57:28.827Z,6.94
2017-05-01T04:58:28.818Z,6.79
2017-05-01T04:59:28.811Z,6.87
2017-05-01T05:00:28.795Z,6.87
2017-05-01T05:01:28.787Z,6.84
2017-05-01T05:02:28.777Z,6.85
2017-05-01T05:03:28.765Z,6.81
2017-05-01T05:04:28.758Z,6.92
2017-05-01T05:05:28.745Z,6.95
2017-05-01T05:06:28.737Z,7.13
2017-05-01T05:07:28.723Z,7.06
2017-05-01T05:08:28.717Z,7.17
2017-05-01T05:09:28.705Z,7.23
2017-05-01T05:10:28.696Z,7.3
2017-05-01T05:11:28.684Z,7.34
2017-05-01T05:12:28.677Z,7.45
2017-05-01T05:13:28.674Z,7.52
2017-05-01T05:14:28.659Z,7.49
2017-05-01T05:15:28.644Z,7.57
2017-05-01T05:16:28.633Z,7.6
2017-05-01T05:17:28.632Z,7.69
2017-05-01T05:18:28.618Z,7.71
2017-05-01T05:19:28.608Z,7.72
2017-05-01T05:20:28.600Z,7.83
2017-05-01T05:21:28.588Z,7.95
2017-05-01T05:22:28.578Z,8.02
2017-05-01T05:23:28.576Z,8.04
2017-05-01T05:24:28.558Z,8.16
2017-05-01T05:25:28.547Z,8.15
2017-05-01T05:26:28.538Z,8.12
2017-05-01T05:27:28.528Z,8.19
2017-05-01T05:28:28.521Z,8.23
2017-05-01T05:29:28.516Z,8.23
2017-05-01T05:30:28.505Z,8.26
2017-05-01T05:31:28.493Z,8.26
2017-05-01T05:32:28.481Z,8.19
2017-05-01T05:33:28.476Z,8.15
2017-05-01T05:34:28.464Z,8.15
2017-05-01T05:35:28.454Z,8.11
2017-05-01T05:36:28.448Z,8.15
2017-05-01T05:37:28.436Z,8.18
2017-05-01T05:38:28.428Z,8.15
2017-05-01T05:39:28.417Z,8.15
2017-05-01T05:40:28.408Z,8.15
2017-05-01T05:41:28.398Z,8.16
2017-05-01T05:42:28.394Z,8.23
2017-05-01T05:43:28.381Z,8.28
2017-05-01T05:44:28.373Z,8.3
2017-05-01T05:45:28.362Z,8.3
2017-05-01T05:46:28.351Z,8.36
2017-05-01T05:47:28.344Z,8.4
2017-05-01T05:48:28.336Z,8.48
2017-05-01T05:49:28.327Z,8.52
2017-05-01T05:50:28.317Z,8.56
2017-05-01T05:51:28.005Z,8.63
2017-05-01T05:52:28.299Z,8.66
2017-05-01T05:53:28.289Z,8.86
2017-05-01T05:54:28.285Z,8.8
2017-05-01T05:55:28.569Z,8.94
2017-05-01T05:56:28.264Z,9.01
2017-05-01T05:57:28.254Z,9.08
2017-05-01T05:58:28.254Z,9.05
2017-05-01T05:59:28.235Z,9.14
2017-05-01T06:00:28.475Z,9.18
2017-05-01T06:01:28.218Z,9.2
2017-05-01T06:02:28.206Z,9.31
2017-05-01T06:03:28.206Z,9.33
2017-05-01T06:04:27.891Z,9.35
2017-05-01T06:05:28.487Z,9.46
2017-05-01T06:06:28.174Z,9.5
2017-05-01T06:07:28.165Z,9.61
2017-05-01T06:08:28.160Z,9.72
2017-05-01T06:09:28.158Z,9.75
2017-05-01T06:10:28.393Z,9.66
2017-05-01T06:11:28.135Z,9.78
2017-05-01T06:12:28.124Z,9.87
2017-05-01T06:13:28.117Z,10.01
2017-05-01T06:14:28.110Z,10.02
2017-05-01T06:15:28.450Z,10.08
2017-05-01T06:16:28.090Z,10.2
2017-05-01T06:17:28.086Z,10.25
2017-05-01T06:18:28.081Z,10.3
2017-05-01T06:19:28.073Z,10.34
2017-05-01T06:20:28.312Z,10.48
2017-05-01T06:21:28.052Z,10.55
2017-05-01T06:22:28.044Z,10.51
2017-05-01T06:23:28.041Z,10.53
2017-05-01T06:24:28.030Z,10.66
2017-05-01T06:25:28.322Z,10.63
2017-05-01T06:26:28.018Z,10.71
2017-05-01T06:27:28.008Z,10.89
2017-05-01T06:28:27.999Z,10.91
2017-05-01T06:29:27.989Z,10.88
2017-05-01T06:30:28.281Z,10.96
2017-05-01T06:31:27.976Z,11.04
2017-05-01T06:32:27.970Z,11.14
2017-05-01T06:33:27.964Z,11.18
2017-05-01T06:34:27.958Z,11.25
2017-05-01T06:35:28.198Z,11.28
2017-05-01T06:36:27.942Z,11.29
2017-05-01T06:37:27.933Z,11.42
2017-05-01T06:38:27.931Z,11.4
2017-05-01T06:39:27.923Z,11.36
2017-05-01T06:40:27.861Z,11.46
2017-05-01T06:41:27.907Z,11.52
2017-05-01T06:42:27.903Z,11.54
2017-05-01T06:43:27.896Z,11.72
2017-05-01T06:44:27.890Z,11.75
2017-05-01T06:45:28.231Z,11.8
2017-05-01T06:46:27.877Z,11.8
2017-05-01T06:47:27.869Z,11.85
2017-05-01T06:48:27.863Z,11.86
2017-05-01T06:49:27.866Z,11.82
2017-05-01T06:50:28.147Z,11.9
2017-05-01T06:51:27.845Z,11.99
2017-05-01T06:52:27.539Z,11.91
2017-05-01T06:53:27.833Z,11.91
2017-05-01T06:54:27.827Z,11.82
2017-05-01T06:55:28.117Z,11.88
2017-05-01T06:56:27.819Z,11.9
2017-05-01T06:57:27.816Z,11.94
2017-05-01T06:58:27.798Z,11.91
2017-05-01T06:59:27.794Z,11.95
2017-05-01T07:00:28.039Z,11.96
2017-05-01T07:01:27.781Z,11.96
2017-05-01T07:02:27.776Z,12.07
2017-05-01T07:03:27.774Z,12.17
2017-05-01T07:04:27.766Z,12.24
2017-05-01T07:05:28.009Z,12.29
2017-05-01T07:06:27.751Z,12.42
2017-05-01T07:07:27.746Z,12.45
2017-05-01T07:08:27.743Z,12.47
2017-05-01T07:09:27.430Z,12.54
2017-05-01T07:10:28.033Z,12.68
2017-05-01T07:11:27.725Z,12.72
2017-05-01T07:12:27.718Z,12.7
2017-05-01T07:13:27.410Z,12.67
2017-05-01T07:14:27.717Z,12.72
2017-05-01T07:15:27.999Z,12.65
2017-05-01T07:16:27.426Z,12.65
2017-05-01T07:17:27.689Z,12.7
2017-05-01T07:18:27.688Z,12.71
2017-05-01T07:19:27.684Z,12.65
2017-05-01T07:20:27.931Z,12.67
2017-05-01T07:21:27.668Z,12.77
2017-05-01T07:22:27.660Z,12.79
2017-05-01T07:23:27.658Z,12.95
2017-05-01T07:24:27.654Z,12.87
2017-05-01T07:25:27.948Z,12.95
2017-05-01T07:26:27.642Z,13.12
2017-05-01T07:27:27.676Z,13.23
2017-05-01T07:28:27.631Z,13.41
2017-05-01T07:29:27.637Z,13.6
2017-05-01T07:30:27.923Z,13.77
2017-05-01T07:31:27.621Z,13.89
2017-05-01T07:32:27.615Z,14.02
2017-05-01T07:33:27.618Z,14.21
2017-05-01T07:34:27.609Z,14.25
2017-05-01T07:35:27.854Z,14.28
2017-05-01T07:36:27.600Z,14.46
2017-05-01T07:37:27.598Z,14.62
2017-05-01T07:38:27.597Z,14.81
2017-05-01T07:39:27.593Z,15.19
2017-05-01T07:40:27.891Z,15.53
2017-05-01T07:41:27.590Z,15.84
2017-05-01T07:42:27.585Z,16.02
2017-05-01T07:43:27.595Z,16.43
2017-05-01T07:44:27.282Z,16.63
2017-05-01T07:45:27.938Z,16.7
2017-05-01T07:46:27.584Z,16.66
2017-05-01T07:47:27.280Z,16.57
2017-05-01T07:48:27.582Z,16.53
2017-05-01T07:49:27.583Z,16.38
2017-05-01T07:50:27.886Z,16.46
2017-05-01T07:51:27.584Z,16.43
2017-05-01T07:52:27.283Z,16.34
2017-05-01T07:53:27.583Z,16.43
2017-05-01T07:54:27.590Z,16.39
2017-05-01T07:55:27.841Z,16.28
2017-05-01T07:56:27.590Z,16.28
2017-05-01T07:57:27.284Z,16.25
2017-05-01T07:58:27.586Z,16.24
2017-05-01T07:59:27.590Z,16.3
2017-05-01T08:00:27.838Z,16.35
2017-05-01T08:01:27.590Z,16.33
2017-05-01T08:02:27.593Z,16.3
2017-05-01T08:03:27.591Z,16.42
2017-05-01T08:04:27.589Z,16.46
2017-05-01T08:05:27.843Z,16.6
2017-05-01T08:06:27.592Z,16.68
2017-05-01T08:07:27.595Z,16.79
2017-05-01T08:08:27.596Z,16.85
2017-05-01T08:09:27.597Z,16.91
2017-05-01T08:10:27.950Z,16.89
2017-05-01T08:11:27.293Z,16.89
2017-05-01T08:12:27.596Z,16.98
2017-05-01T08:13:27.601Z,17.04
2017-05-01T08:14:27.295Z,17.04
2017-05-01T08:15:27.857Z,16.96
2017-05-01T08:16:27.601Z,17
2017-05-01T08:17:27.642Z,16.89
2017-05-01T08:18:27.599Z,16.89
2017-05-01T08:19:27.598Z,16.85
2017-05-01T08:20:27.851Z,16.81
2017-05-01T08:21:27.598Z,16.78
2017-05-01T08:22:27.597Z,16.7
2017-05-01T08:23:27.598Z,16.76
2017-05-01T08:24:27.600Z,16.71
2017-05-01T08:25:27.594Z,16.68
2017-05-01T08:26:27.292Z,16.81
2017-05-01T08:27:27.595Z,16.78
2017-05-01T08:28:27.599Z,16.76
2017-05-01T08:29:27.606Z,16.71
2017-05-01T08:30:27.593Z,16.68
2017-05-01T08:31:27.988Z,16.76
2017-05-01T08:32:27.591Z,16.73
2017-05-01T08:33:27.593Z,16.89
2017-05-01T08:34:27.592Z,16.86
2017-05-01T08:35:27.840Z,16.81
2017-05-01T08:36:27.592Z,16.79
2017-05-01T08:37:27.591Z,16.94
2017-05-01T08:38:27.592Z,16.96
2017-05-01T08:39:27.590Z,16.96
2017-05-01T08:40:27.835Z,17.08
2017-05-01T08:41:27.587Z,17.06
2017-05-01T08:42:27.583Z,17.15
2017-05-01T08:43:27.583Z,17.14
2017-05-01T08:44:27.580Z,17.07
2017-05-01T08:45:27.829Z,17.11
2017-05-01T08:46:27.581Z,17.14
2017-05-01T08:47:27.586Z,17.04
2017-05-01T08:48:27.274Z,17.16
2017-05-01T08:49:27.574Z,17.18
2017-05-01T08:50:26.969Z,17.21
2017-05-01T08:51:27.571Z,17.04
2017-05-01T08:52:27.269Z,17.03
2017-05-01T08:53:27.577Z,17.01
2017-05-01T08:54:27.576Z,17.11
2017-05-01T08:55:27.569Z,17.18
2017-05-01T08:56:27.572Z,17.15
2017-05-01T08:57:27.569Z,17.22
2017-05-01T08:58:27.575Z,17.33
2017-05-01T08:59:27.567Z,17.26
2017-05-01T09:00:27.566Z,17.41
2017-05-01T09:01:27.560Z,17.4
2017-05-01T09:02:27.561Z,17.46
2017-05-01T09:03:27.559Z,17.38
2017-05-01T09:04:27.562Z,17.56
2017-05-01T09:05:27.559Z,17.52
2017-05-01T09:06:27.920Z,17.54
2017-05-01T09:07:27.555Z,17.71
2017-05-01T09:08:27.259Z,17.62
2017-05-01T09:09:27.556Z,17.77
2017-05-01T09:10:27.551Z,17.78
2017-05-01T09:11:27.804Z,17.84
2017-05-01T09:12:27.550Z,17.84
2017-05-01T09:13:27.588Z,17.9
2017-05-01T09:14:27.571Z,17.89
2017-05-01T09:15:27.551Z,17.71
2017-05-01T09:16:27.499Z,17.77
2017-05-01T09:17:27.547Z,17.7
2017-05-01T09:18:27.553Z,17.82
2017-05-01T09:19:27.559Z,17.79
2017-05-01T09:20:27.551Z,17.84
2017-05-01T09:21:27.544Z,17.84
2017-05-01T09:22:27.542Z,17.81
2017-05-01T09:23:27.545Z,17.63
2017-05-01T09:24:27.237Z,17.59
2017-05-01T09:25:27.239Z,17.44
2017-05-01T09:26:27.791Z,17.25
2017-05-01T09:27:27.537Z,17.18
2017-05-01T09:28:27.540Z,17.14
2017-05-01T09:29:27.534Z,17.14
2017-05-01T09:30:27.535Z,16.88
2017-05-01T09:31:27.778Z,16.75
2017-05-01T09:32:27.526Z,16.68
2017-05-01T09:33:27.543Z,16.6
2017-05-01T09:34:27.526Z,16.43
2017-05-01T09:35:27.525Z,16.34
2017-05-01T09:36:27.768Z,16.34
2017-05-01T09:37:27.215Z,16.38
2017-05-01T09:38:27.514Z,16.38
2017-05-01T09:39:27.513Z,16.34
2017-05-01T09:40:27.511Z,16.33
2017-05-01T09:41:27.806Z,16.38
2017-05-01T09:42:27.504Z,16.31
2017-05-01T09:43:27.499Z,16.39
2017-05-01T09:44:27.500Z,16.24
2017-05-01T09:45:27.494Z,16.28
2017-05-01T09:46:27.791Z,16.24
2017-05-01T09:47:27.494Z,16.23
2017-05-01T09:48:27.482Z,16.23
2017-05-01T09:49:27.486Z,16.21
2017-05-01T09:50:27.475Z,16.17
2017-05-01T09:51:27.781Z,16.17
2017-05-01T09:52:27.472Z,16.24
2017-05-01T09:53:27.469Z,16.31
2017-05-01T09:54:27.171Z,16.24
2017-05-01T09:55:27.464Z,16.39
2017-05-01T09:56:27.707Z,16.27
2017-05-01T09:57:27.453Z,16.25
2017-05-01T09:58:27.452Z,16.27
2017-05-01T09:59:27.447Z,16.31
2017-05-01T10:00:27.442Z,16.21
2017-05-01T10:01:27.689Z,16.2
2017-05-01T10:02:27.437Z,16.31
2017-05-01T10:03:27.435Z,16.21
2017-05-01T10:04:27.430Z,16.28
2017-05-01T10:05:27.426Z,16.33
2017-05-01T10:06:27.721Z,16.35
2017-05-01T10:07:27.421Z,16.35
2017-05-01T10:08:27.415Z,16.38
2017-05-01T10:09:27.774Z,16.41
2017-05-01T10:10:27.406Z,16.33
2017-05-01T10:11:27.757Z,16.38
2017-05-01T10:12:27.410Z,16.34
2017-05-01T10:13:27.400Z,16.38
2017-05-01T10:14:27.397Z,16.42
2017-05-01T10:15:27.390Z,16.41
2017-05-01T10:16:27.636Z,16.42
2017-05-01T10:17:27.383Z,16.39
2017-05-01T10:18:27.380Z,16.43
2017-05-01T10:19:27.379Z,16.43
2017-05-01T10:20:27.376Z,16.45
2017-05-01T10:21:27.671Z,16.5
2017-05-01T10:22:27.368Z,16.5
2017-05-01T10:23:27.362Z,16.48
2017-05-01T10:24:27.360Z,16.5
2017-05-01T10:25:27.359Z,16.5
2017-05-01T10:26:27.603Z,16.49
2017-05-01T10:27:27.349Z,16.48
2017-05-01T10:28:27.348Z,16.49
2017-05-01T10:29:27.342Z,16.5
2017-05-01T10:30:27.339Z,16.52
2017-05-01T10:31:27.329Z,16.49
2017-05-01T10:32:27.330Z,16.41
2017-05-01T10:33:27.329Z,16.45
2017-05-01T10:34:27.326Z,16.45
2017-05-01T10:35:27.323Z,16.48
2017-05-01T10:36:27.269Z,16.56
2017-05-01T10:37:27.311Z,16.53
2017-05-01T10:38:27.316Z,16.57
2017-05-01T10:39:27.311Z,16.63
2017-05-01T10:40:27.304Z,16.63
2017-05-01T10:41:27.249Z,16.6
2017-05-01T10:42:27.294Z,16.56
2017-05-01T10:43:27.294Z,16.66
2017-05-01T10:44:27.292Z,16.68
2017-05-01T10:45:27.288Z,16.71
2017-05-01T10:46:27.582Z,16.73
2017-05-01T10:47:27.278Z,16.75
2017-05-01T10:48:27.273Z,16.75
2017-05-01T10:49:26.982Z,16.81
2017-05-01T10:50:27.269Z,16.85
2017-05-01T10:51:27.518Z,16.83
2017-05-01T10:52:26.966Z,16.88
2017-05-01T10:53:27.262Z,16.96
2017-05-01T10:54:27.262Z,16.86
2017-05-01T10:55:27.249Z,16.91
2017-05-01T10:56:27.630Z,16.93
2017-05-01T10:57:27.247Z,16.91
2017-05-01T10:58:27.248Z,16.98
2017-05-01T10:59:27.247Z,17.01
2017-05-01T11:00:27.233Z,17.07
2017-05-01T11:01:27.532Z,17.07
2017-05-01T11:02:26.926Z,17.08
2017-05-01T11:03:27.234Z,17.06
2017-05-01T11:04:26.919Z,17.04
2017-05-01T11:05:27.220Z,17.18
2017-05-01T11:06:27.563Z,17.23
2017-05-01T11:07:26.916Z,17.38
2017-05-01T11:08:27.212Z,17.55
2017-05-01T11:09:27.208Z,17.63
2017-05-01T11:10:27.203Z,17.71
2017-05-01T11:11:27.505Z,17.9
2017-05-01T11:12:27.195Z,17.95
2017-05-01T11:13:27.199Z,17.9
2017-05-01T11:14:27.195Z,18.15
2017-05-01T11:15:27.190Z,18.25
2017-05-01T11:16:27.486Z,18.15
2017-05-01T11:17:27.186Z,18.12
2017-05-01T11:18:27.188Z,18.12
2017-05-01T11:19:27.179Z,18
2017-05-01T11:20:27.176Z,18.11
2017-05-01T11:21:27.425Z,18.05
2017-05-01T11:22:27.171Z,17.99
2017-05-01T11:23:27.175Z,18.1
2017-05-01T11:24:27.170Z,18.11
2017-05-01T11:25:27.167Z,18.14
2017-05-01T11:26:27.412Z,18.21
2017-05-01T11:27:27.166Z,18.25
2017-05-01T11:28:27.159Z,18.25
2017-05-01T11:29:27.162Z,18.29
2017-05-01T11:30:27.161Z,18.3
2017-05-01T11:31:27.401Z,18.48
2017-05-01T11:32:27.155Z,18.39
2017-05-01T11:33:27.149Z,18.47
2017-05-01T11:34:27.150Z,18.52
2017-05-01T11:35:27.145Z,18.65
2017-05-01T11:36:27.089Z,18.69
2017-05-01T11:37:26.834Z,18.73
2017-05-01T11:38:27.140Z,18.92
2017-05-01T11:39:27.141Z,19.04
2017-05-01T11:40:27.131Z,18.94
2017-05-01T11:41:27.436Z,18.94
2017-05-01T11:42:27.131Z,18.92
2017-05-01T11:43:27.132Z,18.88
2017-05-01T11:44:26.824Z,18.88
2017-05-01T11:45:27.121Z,18.92
2017-05-01T11:46:27.424Z,18.95
2017-05-01T11:47:26.517Z,18.91
2017-05-01T11:48:26.515Z,18.92
2017-05-01T11:49:26.817Z,18.95
2017-05-01T11:50:27.120Z,18.88
2017-05-01T11:51:27.416Z,18.87
2017-05-01T11:52:26.811Z,18.91
2017-05-01T11:53:27.113Z,18.91
2017-05-01T11:54:27.113Z,18.91
2017-05-01T11:55:27.110Z,19
2017-05-01T11:56:27.356Z,19.16
2017-05-01T11:57:27.108Z,19.21
2017-05-01T11:58:27.106Z,19.16
2017-05-01T11:59:26.800Z,19.16
2017-05-01T12:00:27.100Z,19.25
2017-05-01T12:01:27.350Z,19.31
2017-05-01T12:02:27.114Z,19.22
2017-05-01T12:03:27.101Z,19.23
2017-05-01T12:04:27.098Z,19.39
2017-05-01T12:05:26.792Z,19.46
2017-05-01T12:06:27.397Z,19.44
2017-05-01T12:07:26.789Z,19.48
2017-05-01T12:08:27.095Z,19.55
2017-05-01T12:09:27.093Z,19.69
2017-05-01T12:10:27.090Z,19.58
2017-05-01T12:11:27.344Z,19.51
2017-05-01T12:12:26.786Z,19.41
2017-05-01T12:13:27.089Z,19.26
2017-05-01T12:14:27.100Z,19.18
2017-05-01T12:15:27.086Z,19.28
2017-05-01T12:16:27.435Z,19.32
2017-05-01T12:17:27.083Z,19.28
2017-05-01T12:18:27.087Z,19.16
2017-05-01T12:19:27.083Z,19.14
2017-05-01T12:20:27.082Z,19.06
2017-05-01T12:21:27.363Z,19.04
2017-05-01T12:22:27.079Z,19.04
2017-05-01T12:23:27.088Z,19.07
2017-05-01T12:24:26.778Z,19.07
2017-05-01T12:25:26.775Z,19.14
2017-05-01T12:26:27.377Z,19.31
2017-05-01T12:27:27.073Z,19.25
2017-05-01T12:28:27.072Z,19.44
2017-05-01T12:29:26.771Z,19.51
2017-05-01T12:30:26.767Z,19.46
2017-05-01T12:31:27.319Z,19.51
2017-05-01T12:32:27.068Z,19.51
2017-05-01T12:33:27.067Z,19.51
2017-05-01T12:34:27.072Z,19.48
2017-05-01T12:35:26.458Z,19.48
2017-05-01T12:36:27.312Z,19.51
2017-05-01T12:37:27.063Z,19.43
2017-05-01T12:38:27.064Z,19.48
2017-05-01T12:39:27.062Z,19.47
2017-05-01T12:40:27.060Z,19.41
2017-05-01T12:41:27.410Z,19.43
2017-05-01T12:42:26.755Z,19.41
2017-05-01T12:43:26.758Z,19.28
2017-05-01T12:44:27.057Z,19.28
2017-05-01T12:45:26.756Z,19.22
2017-05-01T12:46:27.356Z,19.33
2017-05-01T12:47:26.750Z,19.25
2017-05-01T12:48:27.052Z,19.39
2017-05-01T12:49:26.750Z,19.31
2017-05-01T12:50:27.047Z,19.29
2017-05-01T12:51:27.351Z,19.41
2017-05-01T12:52:27.046Z,19.29
2017-05-01T12:53:26.745Z,19.47
2017-05-01T12:54:26.747Z,19.47
2017-05-01T12:55:27.057Z,19.44
2017-05-01T12:56:27.293Z,19.39
2017-05-01T12:57:27.040Z,19.46
2017-05-01T12:58:26.442Z,19.36
2017-05-01T12:59:27.042Z,19.31
2017-05-01T13:00:26.433Z,19.37
2017-05-01T13:01:27.289Z,19.41
2017-05-01T13:02:27.039Z,19.4
2017-05-01T13:03:27.036Z,19.44
2017-05-01T13:04:27.036Z,19.46
2017-05-01T13:05:26.733Z,19.63
2017-05-01T13:06:27.336Z,19.77
2017-05-01T13:07:26.428Z,19.77